KSEP/SEP METAR and TAF weather

Enter ICAO airport designator
Station Type Date Time Source
KSEP METAR 2022/05/26 04:55 UTC NOAA

KSEP 260455Z AUTO 00000KT 10SM SCT090 14/11 A2997 RMK AO2 P0001 T01370109


Station Type Date Time Source
KSEP Decoded METAR 2022/05/26 04:55 UTC NOAA

Stephenville, Clark Field Municipal Airport, TX, United States (KSEP) 32-13N 098-11W 402M
May 26, 2022 - 12:55 AM EDT / 2022.05.26 0455 UTC
Wind: Calm:0
Visibility: 10 mile(s):0
Sky conditions: partly cloudy
Precipitation last hour: 0.01 inches
Temperature: 56.7 F (13.7 C)
Dew Point: 51.6 F (10.9 C)
Relative Humidity: 83%
Pressure (altimeter): 29.97 in. Hg (1014 hPa)
ob: KSEP 260455Z AUTO 00000KT 10SM SCT090 14/11 A2997 RMK AO2 P0001 T01370109
cycle: 5

Station Type Date Time Source
KSEP TAF UTC NOAA

Error!

Example: see airport list